createdAt,value
2018-08-27T00:00:52.637Z,55.26
2018-08-27T00:01:52.660Z,54.90
2018-08-27T00:02:52.675Z,54.61
2018-08-27T00:03:52.696Z,54.39
2018-08-27T00:04:52.717Z,54.11
2018-08-27T00:05:52.742Z,53.75
2018-08-27T00:06:52.751Z,54.13
2018-08-27T00:07:52.775Z,53.94
2018-08-27T00:08:52.790Z,54.13
2018-08-27T00:09:52.810Z,53.66
2018-08-27T00:10:52.827Z,54.04
2018-08-27T00:11:52.847Z,53.85
2018-08-27T00:12:52.869Z,54.21
2018-08-27T00:13:52.886Z,53.44
2018-08-27T00:14:52.906Z,53.27
2018-08-27T00:15:52.925Z,53.56
2018-08-27T00:16:52.947Z,52.98
2018-08-27T00:17:52.966Z,53.56
2018-08-27T00:18:52.981Z,52.69
2018-08-27T00:19:53.001Z,53.56
2018-08-27T00:20:53.020Z,53.75
2018-08-27T00:21:53.043Z,53.17
2018-08-27T00:22:53.059Z,52.79
2018-08-27T00:23:53.079Z,52.22
2018-08-27T00:24:53.099Z,52.89
2018-08-27T00:25:53.114Z,53.17
2018-08-27T00:26:53.136Z,53.17
2018-08-27T00:27:53.153Z,53.56
2018-08-27T00:28:53.175Z,53.27
2018-08-27T00:29:53.194Z,52.98
2018-08-27T00:30:53.213Z,53.17
2018-08-27T00:31:53.233Z,54.90
2018-08-27T00:32:53.250Z,55.07
2018-08-27T00:33:53.272Z,55.19
2018-08-27T00:34:53.291Z,55.38
2018-08-27T00:35:53.309Z,54.80
2018-08-27T00:36:53.331Z,54.45
2018-08-27T00:37:53.346Z,54.25
2018-08-27T00:38:53.368Z,54.45
2018-08-27T00:39:53.386Z,54.83
2018-08-27T00:40:53.403Z,53.97
2018-08-27T00:41:53.425Z,53.68
2018-08-27T00:42:53.443Z,53.97
2018-08-27T00:43:53.463Z,53.58
2018-08-27T00:44:53.481Z,53.78
2018-08-27T00:45:53.501Z,53.78
2018-08-27T00:46:53.519Z,53.87
2018-08-27T00:47:53.539Z,53.87
2018-08-27T00:48:53.563Z,54.16
2018-08-27T00:49:53.579Z,53.87
2018-08-27T00:50:53.598Z,53.97
2018-08-27T00:51:53.616Z,53.87
2018-08-27T00:52:53.637Z,53.97
2018-08-27T00:53:53.658Z,55.02
2018-08-27T00:54:53.678Z,54.45
2018-08-27T00:55:53.743Z,55.69
2018-08-27T00:56:53.714Z,55.22
2018-08-27T00:57:53.732Z,55.02
2018-08-27T00:58:53.908Z,55.02
2018-08-27T00:59:53.775Z,55.32
2018-08-27T01:00:53.792Z,55.51
2018-08-27T01:01:53.809Z,55.32
2018-08-27T01:02:53.833Z,55.22
2018-08-27T01:03:53.849Z,55.51
2018-08-27T01:04:53.881Z,55.79
2018-08-27T01:05:53.913Z,56.37
2018-08-27T01:06:53.909Z,56.37
2018-08-27T01:07:53.926Z,58.00
2018-08-27T01:08:53.952Z,56.44
2018-08-27T01:09:53.965Z,57.68
2018-08-27T01:10:53.985Z,57.50
2018-08-27T01:11:54.004Z,58.84
2018-08-27T01:12:54.024Z,59.80
2018-08-27T01:13:54.048Z,59.80
2018-08-27T01:14:54.066Z,58.94
2018-08-27T01:15:54.085Z,59.22
2018-08-27T01:16:54.105Z,58.74
2018-08-27T01:17:54.127Z,59.99
2018-08-27T01:18:54.141Z,61.88
2018-08-27T01:19:54.158Z,61.62
2018-08-27T01:20:54.180Z,60.75
2018-08-27T01:21:54.207Z,60.85
2018-08-27T01:22:54.218Z,63.12
2018-08-27T01:23:54.237Z,63.22
2018-08-27T01:24:54.259Z,62.77
2018-08-27T01:25:54.279Z,61.59
2018-08-27T01:26:54.299Z,61.33
2018-08-27T01:27:54.316Z,61.43
2018-08-27T01:28:54.335Z,61.72
2018-08-27T01:29:54.353Z,61.24
2018-08-27T01:30:54.371Z,61.40
2018-08-27T01:31:54.394Z,61.14
2018-08-27T01:32:54.412Z,60.75
2018-08-27T01:33:54.435Z,60.95
2018-08-27T01:34:54.457Z,59.99
2018-08-27T01:35:54.471Z,59.99
2018-08-27T01:36:54.494Z,60.28
2018-08-27T01:37:54.516Z,59.89
2018-08-27T01:38:54.535Z,59.73
2018-08-27T01:39:54.549Z,60.08
2018-08-27T01:40:54.571Z,59.80
2018-08-27T01:41:54.589Z,59.03
2018-08-27T01:42:54.603Z,58.84
2018-08-27T01:43:54.628Z,58.58
2018-08-27T01:44:54.648Z,59.80
2018-08-27T01:45:54.668Z,59.03
2018-08-27T01:46:54.685Z,57.21
2018-08-27T01:47:54.703Z,58.07
2018-08-27T01:48:54.722Z,57.88
2018-08-27T01:49:54.741Z,57.01
2018-08-27T01:50:54.762Z,56.63
2018-08-27T01:51:54.782Z,56.92
2018-08-27T01:52:54.799Z,56.82
2018-08-27T01:53:54.818Z,56.53
2018-08-27T01:54:54.840Z,57.50
2018-08-27T01:55:54.857Z,56.27
2018-08-27T01:56:54.877Z,56.15
2018-08-27T01:57:54.897Z,56.34
2018-08-27T01:58:54.918Z,55.67
2018-08-27T01:59:54.933Z,55.47
2018-08-27T02:00:54.961Z,55.77
2018-08-27T02:01:54.974Z,55.00
2018-08-27T02:02:54.999Z,55.38
2018-08-27T02:03:55.017Z,54.80
2018-08-27T02:04:55.030Z,54.52
2018-08-27T02:05:55.050Z,54.90
2018-08-27T02:06:55.114Z,54.33
2018-08-27T02:07:55.093Z,54.61
2018-08-27T02:08:55.111Z,54.13
2018-08-27T02:09:55.133Z,54.80
2018-08-27T02:10:55.162Z,54.83
2018-08-27T02:11:55.169Z,54.71
2018-08-27T02:12:55.187Z,54.45
2018-08-27T02:13:55.209Z,55.12
2018-08-27T02:14:55.231Z,55.29
2018-08-27T02:15:55.247Z,54.52
2018-08-27T02:16:55.264Z,54.61
2018-08-27T02:17:55.282Z,55.19
2018-08-27T02:18:55.301Z,55.38
2018-08-27T02:19:55.326Z,55.67
2018-08-27T02:20:55.397Z,55.67
2018-08-27T02:21:55.394Z,55.69
2018-08-27T02:22:55.383Z,55.60
2018-08-27T02:23:55.399Z,56.18
2018-08-27T02:24:55.422Z,56.44
2018-08-27T02:25:55.452Z,57.30
2018-08-27T02:26:55.457Z,57.78
2018-08-27T02:27:55.475Z,58.74
2018-08-27T02:28:55.497Z,58.91
2018-08-27T02:29:55.517Z,60.53
2018-08-27T02:30:55.536Z,62.26
2018-08-27T02:31:55.561Z,62.65
2018-08-27T02:32:55.577Z,63.70
2018-08-27T02:33:55.592Z,65.01
2018-08-27T02:34:55.685Z,65.62
2018-08-27T02:35:55.635Z,66.83
2018-08-27T02:36:55.652Z,65.30
2018-08-27T02:37:55.682Z,65.20
2018-08-27T02:38:55.688Z,66.55
2018-08-27T02:39:55.708Z,67.12
2018-08-27T02:40:55.731Z,66.93
2018-08-27T02:41:55.744Z,67.41
2018-08-27T02:42:55.767Z,67.32
2018-08-27T02:43:55.782Z,67.32
2018-08-27T02:44:55.813Z,67.32
2018-08-27T02:45:55.822Z,67.12
2018-08-27T02:46:55.844Z,67.02
2018-08-27T02:47:55.862Z,67.41
2018-08-27T02:48:55.882Z,67.60
2018-08-27T02:49:55.905Z,67.89
2018-08-27T02:50:55.917Z,68.33
2018-08-27T02:51:55.936Z,68.43
2018-08-27T02:52:55.955Z,68.27
2018-08-27T02:53:55.977Z,69.33
2018-08-27T02:54:55.997Z,69.10
2018-08-27T02:55:56.015Z,67.85
2018-08-27T02:56:56.038Z,67.47
2018-08-27T02:57:56.052Z,67.85
2018-08-27T02:58:56.069Z,67.50
2018-08-27T02:59:56.092Z,67.50
2018-08-27T03:00:56.117Z,67.41
2018-08-27T03:01:56.128Z,67.18
2018-08-27T03:02:56.146Z,67.66
2018-08-27T03:03:56.165Z,67.47
2018-08-27T03:04:56.184Z,67.38
2018-08-27T03:05:56.202Z,67.28
2018-08-27T03:06:56.223Z,67.18
2018-08-27T03:07:56.239Z,67.85
2018-08-27T03:08:56.258Z,67.89
2018-08-27T03:09:56.285Z,68.33
2018-08-27T03:10:56.297Z,68.14
2018-08-27T03:11:56.318Z,68.72
2018-08-27T03:12:56.336Z,68.14
2018-08-27T03:13:56.364Z,67.09
2018-08-27T03:14:56.373Z,67.85
2018-08-27T03:15:56.394Z,67.50
2018-08-27T03:16:56.415Z,67.38
2018-08-27T03:17:56.429Z,67.95
2018-08-27T03:18:56.447Z,67.38
2018-08-27T03:19:56.466Z,67.28
2018-08-27T03:20:56.485Z,67.47
2018-08-27T03:21:56.504Z,66.83
2018-08-27T03:22:56.526Z,66.93
2018-08-27T03:23:56.541Z,67.02
2018-08-27T03:24:56.599Z,66.55
2018-08-27T03:25:56.579Z,67.09
2018-08-27T03:26:56.605Z,67.38
2018-08-27T03:27:56.615Z,67.32
2018-08-27T03:28:56.638Z,67.66
2018-08-27T03:29:56.655Z,67.38
2018-08-27T03:30:56.678Z,67.47
2018-08-27T03:31:56.695Z,66.89
2018-08-27T03:32:56.711Z,66.26
2018-08-27T03:33:56.731Z,66.64
2018-08-27T03:34:56.748Z,66.16
2018-08-27T03:35:56.767Z,65.20
2018-08-27T03:36:56.784Z,65.39
2018-08-27T03:37:56.807Z,64.92
2018-08-27T03:38:56.826Z,65.01
2018-08-27T03:39:56.842Z,65.11
2018-08-27T03:40:56.863Z,65.11
2018-08-27T03:41:56.880Z,64.56
2018-08-27T03:42:56.897Z,64.85
2018-08-27T03:43:56.920Z,65.05
2018-08-27T03:44:56.936Z,64.56
2018-08-27T03:45:56.955Z,64.09
2018-08-27T03:46:56.973Z,63.60
2018-08-27T03:47:56.991Z,63.99
2018-08-27T03:48:57.013Z,63.12
2018-08-27T03:49:57.029Z,63.70
2018-08-27T03:50:57.049Z,64.18
2018-08-27T03:51:57.073Z,64.28
2018-08-27T03:52:57.087Z,63.03
2018-08-27T03:53:57.106Z,63.22
2018-08-27T03:54:57.131Z,63.03
2018-08-27T03:55:57.144Z,63.03
2018-08-27T03:56:57.168Z,62.65
2018-08-27T03:57:57.186Z,62.65
2018-08-27T03:58:57.202Z,61.98
2018-08-27T03:59:57.217Z,62.07
2018-08-27T04:00:57.240Z,62.45
2018-08-27T04:01:57.259Z,62.16
2018-08-27T04:02:57.276Z,61.69
2018-08-27T04:03:57.296Z,62.26
2018-08-27T04:04:57.318Z,61.98
2018-08-27T04:05:57.336Z,61.11
2018-08-27T04:06:57.355Z,61.88
2018-08-27T04:07:57.377Z,61.21
2018-08-27T04:08:57.394Z,61.40
2018-08-27T04:09:57.409Z,60.95
2018-08-27T04:10:57.427Z,61.11
2018-08-27T04:11:57.450Z,60.08
2018-08-27T04:12:57.470Z,59.67
2018-08-27T04:13:57.486Z,60.28
2018-08-27T04:14:57.635Z,59.58
2018-08-27T04:15:57.527Z,60.05
2018-08-27T04:16:57.543Z,60.05
2018-08-27T04:17:57.567Z,59.58
2018-08-27T04:18:57.583Z,59.70
2018-08-27T04:19:57.598Z,59.77
2018-08-27T04:20:57.622Z,60.05
2018-08-27T04:21:57.639Z,60.15
2018-08-27T04:22:57.659Z,59.77
2018-08-27T04:23:57.685Z,60.15
2018-08-27T04:24:57.700Z,59.67
2018-08-27T04:25:57.718Z,60.05
2018-08-27T04:26:57.734Z,60.05
2018-08-27T04:27:57.753Z,58.91
2018-08-27T04:28:57.773Z,59.00
2018-08-27T04:29:57.795Z,58.74
2018-08-27T04:30:57.813Z,58.81
2018-08-27T04:31:57.828Z,59.48
2018-08-27T04:32:57.852Z,58.94
2018-08-27T04:33:57.873Z,58.74
2018-08-27T04:34:57.903Z,58.91
2018-08-27T04:35:57.904Z,58.94
2018-08-27T04:36:57.928Z,57.85
2018-08-27T04:37:57.963Z,58.52
2018-08-27T04:38:57.971Z,58.23
2018-08-27T04:39:57.982Z,58.81
2018-08-27T04:40:58.003Z,58.33
2018-08-27T04:41:58.025Z,58.91
2018-08-27T04:42:58.176Z,58.81
2018-08-27T04:43:58.064Z,59.09
2018-08-27T04:44:58.078Z,59.36
2018-08-27T04:45:58.097Z,59.09
2018-08-27T04:46:58.123Z,59.09
2018-08-27T04:47:58.136Z,59.09
2018-08-27T04:48:58.152Z,59.00
2018-08-27T04:49:58.178Z,59.48
2018-08-27T04:50:58.191Z,58.71
2018-08-27T04:51:58.213Z,58.52
2018-08-27T04:52:58.233Z,58.94
2018-08-27T04:53:58.251Z,58.07
2018-08-27T04:54:58.267Z,58.36
2018-08-27T04:55:58.288Z,58.71
2018-08-27T04:56:58.311Z,59.09
2018-08-27T04:57:58.327Z,59.29
2018-08-27T04:58:58.346Z,59.41
2018-08-27T04:59:58.364Z,59.58
2018-08-27T05:00:58.384Z,59.48
2018-08-27T05:01:58.406Z,59.80
2018-08-27T05:02:58.424Z,60.44
2018-08-27T05:03:58.441Z,61.78
2018-08-27T05:04:58.463Z,62.16
2018-08-27T05:05:58.481Z,62.55
2018-08-27T05:06:58.505Z,63.70
2018-08-27T05:07:58.550Z,65.01
2018-08-27T05:08:58.536Z,65.14
2018-08-27T05:09:58.559Z,66.06
2018-08-27T05:10:58.574Z,66.49
2018-08-27T05:11:58.593Z,66.93
2018-08-27T05:12:58.617Z,67.69
2018-08-27T05:13:58.632Z,67.99
2018-08-27T05:14:58.649Z,67.99
2018-08-27T05:15:58.669Z,68.75
2018-08-27T05:16:58.689Z,68.85
2018-08-27T05:17:58.717Z,68.75
2018-08-27T05:18:58.780Z,69.33
2018-08-27T05:19:58.745Z,69.13
2018-08-27T05:20:58.766Z,68.95
2018-08-27T05:21:58.785Z,68.30
2018-08-27T05:22:58.807Z,69.04
2018-08-27T05:23:58.823Z,69.07
2018-08-27T05:24:58.841Z,69.33
2018-08-27T05:25:58.860Z,69.52
2018-08-27T05:26:58.878Z,69.52
2018-08-27T05:27:58.900Z,69.42
2018-08-27T05:28:58.918Z,69.36
2018-08-27T05:29:58.938Z,68.79
2018-08-27T05:30:59.020Z,68.98
2018-08-27T05:31:58.975Z,70.00
2018-08-27T05:32:58.999Z,70.76
2018-08-27T05:33:59.015Z,70.19
2018-08-27T05:34:59.034Z,69.46
2018-08-27T05:35:59.052Z,69.36
2018-08-27T05:36:59.070Z,69.56
2018-08-27T05:37:59.140Z,69.74
2018-08-27T05:38:59.106Z,70.23
2018-08-27T05:39:59.128Z,71.82
2018-08-27T05:40:59.147Z,72.88
2018-08-27T05:41:59.169Z,72.63
2018-08-27T05:42:59.187Z,72.43
2018-08-27T05:43:59.204Z,72.81
2018-08-27T05:44:59.227Z,72.63
2018-08-27T05:45:59.246Z,72.24
2018-08-27T05:46:59.264Z,73.00
2018-08-27T05:47:59.281Z,72.43
2018-08-27T05:48:59.299Z,73.30
2018-08-27T05:49:59.319Z,72.47
2018-08-27T05:50:59.339Z,71.47
2018-08-27T05:51:59.508Z,72.72
2018-08-27T05:52:59.378Z,71.76
2018-08-27T05:53:59.400Z,72.14
2018-08-27T05:54:59.418Z,72.59
2018-08-27T05:55:59.440Z,73.74
2018-08-27T05:56:59.454Z,73.65
2018-08-27T05:57:59.486Z,72.97
2018-08-27T05:58:59.491Z,72.43
2018-08-27T05:59:59.513Z,72.33
2018-08-27T06:00:59.529Z,71.92
2018-08-27T06:01:59.600Z,71.86
2018-08-27T06:02:59.568Z,72.59
2018-08-27T06:03:59.589Z,71.95
2018-08-27T06:04:59.611Z,71.86
2018-08-27T06:05:59.626Z,71.66
2018-08-27T06:06:59.643Z,71.19
2018-08-27T06:07:59.662Z,71.15
2018-08-27T06:08:59.737Z,72.30
2018-08-27T06:09:59.705Z,72.14
2018-08-27T06:10:59.740Z,72.43
2018-08-27T06:11:59.740Z,73.55
2018-08-27T06:12:59.761Z,75.56
2018-08-27T06:13:59.777Z,76.32
2018-08-27T06:14:59.796Z,76.32
2018-08-27T06:15:59.823Z,77.19
2018-08-27T06:16:59.888Z,77.19
2018-08-27T06:17:59.873Z,77.38
2018-08-27T06:18:59.876Z,77.86
2018-08-27T06:19:59.892Z,77.48
2018-08-27T06:20:59.914Z,77.00
2018-08-27T06:21:59.973Z,77.95
2018-08-27T06:22:59.952Z,77.95
2018-08-27T06:23:59.976Z,79.55
2018-08-27T06:24:59.996Z,79.74
2018-08-27T06:26:00.013Z,80.07
2018-08-27T06:27:00.029Z,79.97
2018-08-27T06:28:00.048Z,79.49
2018-08-27T06:29:00.075Z,79.39
2018-08-27T06:30:00.089Z,79.11
2018-08-27T06:31:00.105Z,80.22
2018-08-27T06:32:00.124Z,80.26
2018-08-27T06:33:00.142Z,79.88
2018-08-27T06:34:00.163Z,80.26
2018-08-27T06:35:00.203Z,80.26
2018-08-27T06:36:00.202Z,80.70
2018-08-27T06:37:00.219Z,81.18
2018-08-27T06:38:00.279Z,81.75
2018-08-27T06:39:00.260Z,80.51
2018-08-27T06:40:00.276Z,81.18
2018-08-27T06:41:00.295Z,80.51
2018-08-27T06:42:00.319Z,80.03
2018-08-27T06:43:00.334Z,80.94
2018-08-27T06:44:00.355Z,81.66
2018-08-27T06:45:00.373Z,81.85
2018-08-27T06:46:00.392Z,80.26
2018-08-27T06:47:00.412Z,80.03
2018-08-27T06:48:00.428Z,80.60
2018-08-27T06:49:00.448Z,81.56
2018-08-27T06:50:00.468Z,81.75
2018-08-27T06:51:00.488Z,81.46
2018-08-27T06:52:00.504Z,81.75
2018-08-27T06:53:00.524Z,80.99
2018-08-27T06:54:00.551Z,80.41
2018-08-27T06:55:00.562Z,81.08
2018-08-27T06:56:00.583Z,80.26
2018-08-27T06:57:00.601Z,79.59
2018-08-27T06:58:00.619Z,79.21
2018-08-27T06:59:00.640Z,79.21
2018-08-27T07:00:00.655Z,79.55
2018-08-27T07:01:00.675Z,79.59
2018-08-27T07:02:00.699Z,79.78
2018-08-27T07:03:00.714Z,79.59
2018-08-27T07:04:00.732Z,79.49
2018-08-27T07:05:00.752Z,79.39
2018-08-27T07:06:00.772Z,78.92
2018-08-27T07:07:00.791Z,80.07
2018-08-27T07:08:00.810Z,79.97
2018-08-27T07:09:00.829Z,78.96
2018-08-27T07:10:00.847Z,78.19
2018-08-27T07:11:00.867Z,78.77
2018-08-27T07:12:00.885Z,78.19
2018-08-27T07:13:00.907Z,77.42
2018-08-27T07:14:00.924Z,76.94
2018-08-27T07:15:00.947Z,76.65
2018-08-27T07:16:00.964Z,76.46
2018-08-27T07:17:00.982Z,78.15
2018-08-27T07:18:01.001Z,79.49
2018-08-27T07:19:01.032Z,78.96
2018-08-27T07:20:01.050Z,80.26
2018-08-27T07:21:01.063Z,80.55
2018-08-27T07:22:01.078Z,79.34
2018-08-27T07:23:01.097Z,78.67
2018-08-27T07:24:01.116Z,78.52
2018-08-27T07:25:01.137Z,78.19
2018-08-27T07:26:01.153Z,78.96
2018-08-27T07:27:01.176Z,78.86
2018-08-27T07:28:01.196Z,78.82
2018-08-27T07:29:01.217Z,79.49
2018-08-27T07:30:01.232Z,80.32
2018-08-27T07:31:01.253Z,80.26
2018-08-27T07:32:01.273Z,79.49
2018-08-27T07:33:01.291Z,79.88
2018-08-27T07:34:01.311Z,79.01
2018-08-27T07:35:01.327Z,79.49
2018-08-27T07:36:01.380Z,79.53
2018-08-27T07:37:01.370Z,79.21
2018-08-27T07:38:01.385Z,79.24
2018-08-27T07:39:01.407Z,79.14
2018-08-27T07:40:01.427Z,79.44
2018-08-27T07:41:01.443Z,78.96
2018-08-27T07:42:01.462Z,78.77
2018-08-27T07:43:01.481Z,78.57
2018-08-27T07:44:01.504Z,78.72
2018-08-27T07:45:01.519Z,79.72
2018-08-27T07:46:01.539Z,79.63
2018-08-27T07:47:01.560Z,79.05
2018-08-27T07:48:01.578Z,78.90
2018-08-27T07:49:01.601Z,78.57
2018-08-27T07:50:01.616Z,77.90
2018-08-27T07:51:01.690Z,78.38
2018-08-27T07:52:01.678Z,78.47
2018-08-27T07:53:01.677Z,78.42
2018-08-27T07:54:01.698Z,78.86
2018-08-27T07:55:01.713Z,79.47
2018-08-27T07:56:01.731Z,78.96
2018-08-27T07:57:01.756Z,79.05
2018-08-27T07:58:01.773Z,79.44
2018-08-27T07:59:01.790Z,79.38
2018-08-27T08:00:01.808Z,80.30
2018-08-27T08:01:01.829Z,80.20
2018-08-27T08:02:01.848Z,79.63
2018-08-27T08:03:01.867Z,79.91
2018-08-27T08:04:01.889Z,80.53
2018-08-27T08:05:01.905Z,79.86
2018-08-27T08:06:01.926Z,80.05
2018-08-27T08:07:01.945Z,79.09
2018-08-27T08:08:01.983Z,79.67
2018-08-27T08:09:01.988Z,80.01
2018-08-27T08:10:02.006Z,80.11
2018-08-27T08:11:02.024Z,79.38
2018-08-27T08:12:02.039Z,79.57
2018-08-27T08:13:02.063Z,80.91
2018-08-27T08:14:02.081Z,79.57
2018-08-27T08:15:02.102Z,80.05
2018-08-27T08:16:02.124Z,80.53
2018-08-27T08:17:02.155Z,80.53
2018-08-27T08:18:02.169Z,80.82
2018-08-27T08:19:02.179Z,80.63
2018-08-27T08:20:02.198Z,80.43
2018-08-27T08:21:02.217Z,81.45
2018-08-27T08:22:02.236Z,81.01
2018-08-27T08:23:02.260Z,80.82
2018-08-27T08:24:02.276Z,80.91
2018-08-27T08:25:02.299Z,81.40
2018-08-27T08:26:02.316Z,81.40
2018-08-27T08:27:02.334Z,81.49
2018-08-27T08:28:02.354Z,80.43
2018-08-27T08:29:02.374Z,80.63
2018-08-27T08:30:02.395Z,81.01
2018-08-27T08:31:02.412Z,82.26
2018-08-27T08:32:02.430Z,81.87
2018-08-27T08:33:02.479Z,82.31
2018-08-27T08:34:02.472Z,83.37
2018-08-27T08:35:02.493Z,83.18
2018-08-27T08:36:02.508Z,82.89
2018-08-27T08:37:02.530Z,82.41
2018-08-27T08:38:02.550Z,81.97
2018-08-27T08:39:02.571Z,81.64
2018-08-27T08:40:02.702Z,82.03
2018-08-27T08:41:02.609Z,82.35
2018-08-27T08:42:02.629Z,82.07
2018-08-27T08:43:02.645Z,81.59
2018-08-27T08:44:02.667Z,80.63
2018-08-27T08:45:02.685Z,80.82
2018-08-27T08:46:02.705Z,81.30
2018-08-27T08:47:02.722Z,81.49
2018-08-27T08:48:02.744Z,81.30
2018-08-27T08:49:02.762Z,80.53
2018-08-27T08:50:02.781Z,82.31
2018-08-27T08:51:02.802Z,82.45
2018-08-27T08:52:02.822Z,82.16
2018-08-27T08:53:02.840Z,82.64
2018-08-27T08:54:02.859Z,81.63
2018-08-27T08:55:02.879Z,81.34
2018-08-27T08:56:02.900Z,82.07
2018-08-27T08:57:02.918Z,81.82
2018-08-27T08:58:02.940Z,81.53
2018-08-27T08:59:02.959Z,81.24
2018-08-27T09:00:02.979Z,82.10
2018-08-27T09:01:03.007Z,81.82
2018-08-27T09:02:03.015Z,81.43
2018-08-27T09:03:03.035Z,80.86
2018-08-27T09:04:03.057Z,80.04
2018-08-27T09:05:03.077Z,80.04
2018-08-27T09:06:03.100Z,80.09
2018-08-27T09:07:03.116Z,81.15
2018-08-27T09:08:03.157Z,82.49
2018-08-27T09:09:03.209Z,81.53
2018-08-27T09:10:03.174Z,81.05
2018-08-27T09:11:03.195Z,81.82
2018-08-27T09:12:03.212Z,80.66
2018-08-27T09:13:03.236Z,80.66
2018-08-27T09:14:03.256Z,80.71
2018-08-27T09:15:03.273Z,80.32
2018-08-27T09:16:03.291Z,80.76
2018-08-27T09:17:03.323Z,81.43
2018-08-27T09:18:03.336Z,80.71
2018-08-27T09:19:03.353Z,78.92
2018-08-27T09:20:03.372Z,78.50
2018-08-27T09:21:03.393Z,78.88
2018-08-27T09:22:03.412Z,79.11
2018-08-27T09:23:03.432Z,78.25
2018-08-27T09:24:03.452Z,77.76
2018-08-27T09:25:03.471Z,78.53
2018-08-27T09:26:03.505Z,78.98
2018-08-27T09:27:03.514Z,79.07
2018-08-27T09:28:03.530Z,78.88
2018-08-27T09:29:03.552Z,78.34
2018-08-27T09:30:03.571Z,77.42
2018-08-27T09:31:03.590Z,76.94
2018-08-27T09:32:03.609Z,77.33
2018-08-27T09:33:03.638Z,76.32
2018-08-27T09:34:03.652Z,76.56
2018-08-27T09:35:03.671Z,76.56
2018-08-27T09:36:03.692Z,76.36
2018-08-27T09:37:03.781Z,75.98
2018-08-27T09:38:03.733Z,75.88
2018-08-27T09:39:03.751Z,76.17
2018-08-27T09:40:03.772Z,76.31
2018-08-27T09:41:03.790Z,75.24
2018-08-27T09:42:03.810Z,75.24
2018-08-27T09:43:03.832Z,75.38
2018-08-27T09:44:03.853Z,75.19
2018-08-27T09:45:03.873Z,74.38
2018-08-27T09:46:04.064Z,75.24
2018-08-27T09:47:03.913Z,75.82
2018-08-27T09:48:03.935Z,75.73
2018-08-27T09:49:03.954Z,74.90
2018-08-27T09:50:03.982Z,75.34
2018-08-27T09:51:03.994Z,75.24
2018-08-27T09:52:04.029Z,75.44
2018-08-27T09:53:04.245Z,75.54
2018-08-27T09:54:04.057Z,74.99
2018-08-27T09:55:04.077Z,75.38
2018-08-27T09:56:04.097Z,74.90
2018-08-27T09:57:04.116Z,74.80
2018-08-27T09:58:04.137Z,75.80
2018-08-27T09:59:04.176Z,74.45
2018-08-27T10:00:04.188Z,74.45
2018-08-27T10:01:04.202Z,75.13
2018-08-27T10:02:04.220Z,74.45
2018-08-27T10:03:04.242Z,74.71
2018-08-27T10:04:04.262Z,75.48
2018-08-27T10:05:04.284Z,74.55
2018-08-27T10:06:04.305Z,74.55
2018-08-27T10:07:04.323Z,74.93
2018-08-27T10:08:04.348Z,73.82
2018-08-27T10:09:04.433Z,73.53
2018-08-27T10:10:04.408Z,72.75
2018-08-27T10:11:04.412Z,71.41
2018-08-27T10:12:04.436Z,72.31
2018-08-27T10:13:04.451Z,72.08
2018-08-27T10:14:04.476Z,72.66
2018-08-27T10:15:04.555Z,71.73
2018-08-27T10:16:04.519Z,72.60
2018-08-27T10:17:04.539Z,71.58
2018-08-27T10:18:04.560Z,71.19
2018-08-27T10:19:04.589Z,70.74
2018-08-27T10:20:04.599Z,70.54
2018-08-27T10:21:04.623Z,70.94
2018-08-27T10:22:04.684Z,70.36
2018-08-27T10:23:04.665Z,70.26
2018-08-27T10:24:04.687Z,70.06
2018-08-27T10:25:04.709Z,70.26
2018-08-27T10:26:04.732Z,70.54
2018-08-27T10:27:04.752Z,70.54
2018-08-27T10:28:04.773Z,71.58
2018-08-27T10:29:04.806Z,72.15
2018-08-27T10:30:04.817Z,71.03
2018-08-27T10:31:04.841Z,71.34
2018-08-27T10:32:04.862Z,72.69
2018-08-27T10:33:04.887Z,73.08
2018-08-27T10:34:04.905Z,72.89
2018-08-27T10:35:04.923Z,73.08
2018-08-27T10:36:04.946Z,73.08
2018-08-27T10:37:05.028Z,73.75
2018-08-27T10:38:04.990Z,73.95
2018-08-27T10:39:05.012Z,73.95
2018-08-27T10:40:05.031Z,73.66
2018-08-27T10:41:05.053Z,73.27
2018-08-27T10:42:05.076Z,72.50
2018-08-27T10:43:05.103Z,72.92
2018-08-27T10:44:05.117Z,72.25
2018-08-27T10:45:05.144Z,71.96
2018-08-27T10:46:05.163Z,73.53
2018-08-27T10:47:05.179Z,74.97
2018-08-27T10:48:05.201Z,74.58
2018-08-27T10:49:05.225Z,74.14
2018-08-27T10:50:05.274Z,73.95
2018-08-27T10:51:05.406Z,73.47
2018-08-27T10:52:05.288Z,73.47
2018-08-27T10:53:05.316Z,73.85
2018-08-27T10:54:05.330Z,73.85
2018-08-27T10:55:05.352Z,73.85
2018-08-27T10:56:05.372Z,74.20
2018-08-27T10:57:05.402Z,74.20
2018-08-27T10:58:05.416Z,74.68
2018-08-27T10:59:05.438Z,74.78
2018-08-27T11:00:05.464Z,74.93
2018-08-27T11:01:05.478Z,75.23
2018-08-27T11:02:05.500Z,75.45
2018-08-27T11:03:05.521Z,74.49
2018-08-27T11:04:05.548Z,74.05
2018-08-27T11:05:05.598Z,73.91
2018-08-27T11:06:05.586Z,74.68
2018-08-27T11:07:05.603Z,75.07
2018-08-27T11:08:05.629Z,75.32
2018-08-27T11:09:05.648Z,75.51
2018-08-27T11:10:05.675Z,75.71
2018-08-27T11:11:05.690Z,75.86
2018-08-27T11:12:05.711Z,76.44
2018-08-27T11:13:05.732Z,75.61
2018-08-27T11:14:05.764Z,75.26
2018-08-27T11:15:05.776Z,74.40
2018-08-27T11:16:05.832Z,74.10
2018-08-27T11:17:05.816Z,74.01
2018-08-27T11:18:05.838Z,74.01
2018-08-27T11:19:05.862Z,74.01
2018-08-27T11:20:05.972Z,73.62
2018-08-27T11:21:05.895Z,74.58
2018-08-27T11:22:05.951Z,75.16
2018-08-27T11:23:05.944Z,75.36
2018-08-27T11:24:05.963Z,75.65
2018-08-27T11:25:05.980Z,76.96
2018-08-27T11:26:06.001Z,77.28
2018-08-27T11:27:06.030Z,77.58
2018-08-27T11:28:06.047Z,78.15
2018-08-27T11:29:06.081Z,79.60
2018-08-27T11:30:06.087Z,79.85
2018-08-27T11:31:06.104Z,80.96
2018-08-27T11:32:06.127Z,82.02
2018-08-27T11:33:06.157Z,81.68
2018-08-27T11:34:06.168Z,81.39
2018-08-27T11:35:06.193Z,81.14
2018-08-27T11:36:06.216Z,81.91
2018-08-27T11:37:06.236Z,81.14
2018-08-27T11:38:06.259Z,82.74
2018-08-27T11:39:06.272Z,82.83
2018-08-27T11:40:06.293Z,82.54
2018-08-27T11:41:06.314Z,84.95
2018-08-27T11:42:06.339Z,84.62
2018-08-27T11:43:06.358Z,85.00
2018-08-27T11:44:06.379Z,86.07
2018-08-27T11:45:06.404Z,87.85
2018-08-27T11:46:06.418Z,88.24
2018-08-27T11:47:06.440Z,89.49
2018-08-27T11:48:06.462Z,88.76
2018-08-27T11:49:06.485Z,90.02
2018-08-27T11:50:06.527Z,91.75
2018-08-27T11:51:06.552Z,92.66
2018-08-27T11:52:06.552Z,91.84
2018-08-27T11:53:06.565Z,90.20
2018-08-27T11:54:06.586Z,90.73
2018-08-27T11:55:06.695Z,90.83
2018-08-27T11:56:06.629Z,90.06
2018-08-27T11:57:06.651Z,90.68
2018-08-27T11:58:06.670Z,90.25
2018-08-27T11:59:06.698Z,89.72
2018-08-27T12:00:06.712Z,89.14
2018-08-27T12:01:06.752Z,88.99
2018-08-27T12:02:06.781Z,87.83
2018-08-27T12:03:06.777Z,87.06
2018-08-27T12:04:06.798Z,87.20
2018-08-27T12:05:06.819Z,86.33
2018-08-27T12:06:06.843Z,87.10
2018-08-27T12:07:06.905Z,85.31
2018-08-27T12:08:06.886Z,85.50
2018-08-27T12:09:06.913Z,84.00
2018-08-27T12:10:06.929Z,84.97
2018-08-27T12:11:06.951Z,83.72
2018-08-27T12:12:06.971Z,83.91
2018-08-27T12:13:06.993Z,81.59
2018-08-27T12:14:07.019Z,82.02
2018-08-27T12:15:07.035Z,82.89
2018-08-27T12:16:07.060Z,81.24
2018-08-27T12:17:07.082Z,81.98
2018-08-27T12:18:07.112Z,81.93
2018-08-27T12:19:07.125Z,82.90
2018-08-27T12:20:07.146Z,82.90
2018-08-27T12:21:07.167Z,82.96
2018-08-27T12:22:07.192Z,83.05
2018-08-27T12:23:07.214Z,82.51
2018-08-27T12:24:07.242Z,82.76
2018-08-27T12:25:07.257Z,82.86
2018-08-27T12:26:07.280Z,83.50
2018-08-27T12:27:07.301Z,83.78
2018-08-27T12:28:07.322Z,84.27
2018-08-27T12:29:07.343Z,83.44
2018-08-27T12:30:07.367Z,82.81
2018-08-27T12:31:07.395Z,83.63
2018-08-27T12:32:07.444Z,83.44
2018-08-27T12:33:07.431Z,82.86
2018-08-27T12:34:07.456Z,82.14
2018-08-27T12:35:07.474Z,83.01
2018-08-27T12:36:07.497Z,82.82
2018-08-27T12:37:07.520Z,83.59
2018-08-27T12:38:07.541Z,82.86
2018-08-27T12:39:07.562Z,82.38
2018-08-27T12:40:07.585Z,84.07
2018-08-27T12:41:07.717Z,83.98
2018-08-27T12:42:07.625Z,83.64
2018-08-27T12:43:07.647Z,84.47
2018-08-27T12:44:07.668Z,84.42
2018-08-27T12:45:07.691Z,84.70
2018-08-27T12:46:07.712Z,83.40
2018-08-27T12:47:07.733Z,84.03
2018-08-27T12:48:07.755Z,83.88
2018-08-27T12:49:07.779Z,82.57
2018-08-27T12:50:07.798Z,81.99
2018-08-27T12:51:07.847Z,81.74
2018-08-27T12:52:07.839Z,81.16
2018-08-27T12:53:07.860Z,79.47